createdAt,value
2018-04-22T00:00:00.982Z,17.6
2018-04-22T00:00:50.774Z,17.6
2018-04-22T00:01:41.102Z,17.6
2018-04-22T00:02:30.032Z,17.6
2018-04-22T00:03:20.917Z,17.6
2018-04-22T00:04:11.606Z,17.6
2018-04-22T00:05:01.603Z,17.6
2018-04-22T00:05:51.707Z,17.6
2018-04-22T00:06:40.912Z,17.6
2018-04-22T00:07:30.777Z,17.6
2018-04-22T00:08:21.877Z,17.6
2018-04-22T00:09:11.404Z,17.6
2018-04-22T00:10:01.833Z,17.6
2018-04-22T00:10:51.493Z,17.6
2018-04-22T00:11:41.286Z,17.6
2018-04-22T00:12:31.681Z,17.6
2018-04-22T00:13:21.496Z,17.6
2018-04-22T00:14:12.456Z,17.6
2018-04-22T00:15:02.121Z,17.6
2018-04-22T00:15:51.406Z,17.6
2018-04-22T00:16:41.678Z,17.6
2018-04-22T00:17:31.998Z,17.6
2018-04-22T00:18:22.079Z,17.6
2018-04-22T00:19:12.753Z,17.6
2018-04-22T00:20:02.769Z,17.6
2018-04-22T00:20:52.285Z,17.6
2018-04-22T00:21:42.605Z,17.6
2018-04-22T00:22:32.404Z,17.6
2018-04-22T00:23:21.854Z,17.6
2018-04-22T00:24:12.234Z,17.6
2018-04-22T00:25:02.391Z,17.6
2018-04-22T00:25:52.144Z,17.6
2018-04-22T00:26:42.227Z,17.6
2018-04-22T00:27:32.855Z,17.6
2018-04-22T00:28:22.938Z,17.6
2018-04-22T00:29:12.426Z,17.6
2018-04-22T00:30:02.031Z,17.6
2018-04-22T00:30:53.068Z,17.6
2018-04-22T00:31:42.334Z,17.6
2018-04-22T00:32:32.710Z,17.6
2018-04-22T00:33:22.516Z,17.6
2018-04-22T00:34:13.278Z,17.6
2018-04-22T00:35:03.137Z,17.6
2018-04-22T00:35:52.893Z,17.6
2018-04-22T00:36:44.015Z,17.6
2018-04-22T00:37:33.301Z,17.6
2018-04-22T00:38:23.319Z,17.5
2018-04-22T00:39:14.222Z,17.6
2018-04-22T00:40:04.004Z,17.6
2018-04-22T00:40:53.541Z,17.6
2018-04-22T00:41:43.845Z,17.6
2018-04-22T00:42:33.643Z,17.6
2018-04-22T00:43:24.281Z,17.6
2018-04-22T00:44:14.039Z,17.6
2018-04-22T00:45:03.947Z,17.6
2018-04-22T00:45:54.002Z,17.6
2018-04-22T00:46:44.781Z,17.5
2018-04-22T00:47:33.261Z,17.5
2018-04-22T00:48:24.412Z,17.6
2018-04-22T00:49:14.473Z,17.5
2018-04-22T00:50:04.012Z,17.6
2018-04-22T00:50:54.374Z,17.6
2018-04-22T00:51:44.429Z,17.6
2018-04-22T00:52:33.953Z,17.5
2018-04-22T00:53:24.794Z,17.6
2018-04-22T00:54:14.552Z,17.6
2018-04-22T00:55:04.105Z,17.5
2018-04-22T00:55:54.762Z,17.5
2018-04-22T00:56:44.501Z,17.5
2018-04-22T00:57:34.579Z,17.5
2018-04-22T00:58:24.637Z,17.5
2018-04-22T00:59:14.700Z,17.5
2018-04-22T01:00:03.976Z,17.5
2018-04-22T01:00:54.791Z,17.5
2018-04-22T01:01:44.632Z,17.5
2018-04-22T01:02:34.652Z,17.5
2018-04-22T01:03:25.327Z,17.5
2018-04-22T01:04:15.136Z,17.5
2018-04-22T01:05:05.182Z,17.5
2018-04-22T01:05:54.959Z,17.5
2018-04-22T01:06:45.248Z,17.5
2018-04-22T01:07:35.344Z,17.5
2018-04-22T01:08:24.825Z,17.4
2018-04-22T01:09:14.364Z,17.4
2018-04-22T01:10:05.839Z,17.5
2018-04-22T01:10:55.358Z,17.5
2018-04-22T01:11:46.736Z,17.4
2018-04-22T01:12:36.503Z,17.5
2018-04-22T01:13:26.495Z,17.5
2018-04-22T01:14:16.664Z,17.5
2018-04-22T01:15:06.212Z,17.4
2018-04-22T01:15:55.986Z,17.4
2018-04-22T01:16:46.617Z,17.5
2018-04-22T01:17:36.325Z,17.4
2018-04-22T01:18:26.724Z,17.4
2018-04-22T01:19:16.484Z,17.4
2018-04-22T01:20:06.018Z,17.4
2018-04-22T01:20:56.918Z,17.4
2018-04-22T01:21:45.859Z,17.4
2018-04-22T01:22:37.270Z,17.4
2018-04-22T01:23:27.361Z,17.4
2018-04-22T01:24:16.607Z,17.4
2018-04-22T01:25:06.631Z,17.4
2018-04-22T01:25:57.212Z,17.4
2018-04-22T01:26:47.029Z,17.4
2018-04-22T01:27:36.833Z,17.4
2018-04-22T01:28:27.435Z,17.4
2018-04-22T01:29:17.476Z,17.4
2018-04-22T01:30:06.982Z,17.4
2018-04-22T01:30:58.140Z,17.4
2018-04-22T01:31:48.206Z,17.4
2018-04-22T01:32:37.180Z,17.4
2018-04-22T01:33:26.996Z,17.4
2018-04-22T01:34:18.141Z,17.4
2018-04-22T01:35:08.454Z,17.4
2018-04-22T01:35:58.288Z,17.4
2018-04-22T01:36:47.516Z,17.4
2018-04-22T01:37:37.796Z,17.4
2018-04-22T01:38:28.412Z,17.4
2018-04-22T01:39:18.619Z,17.4
2018-04-22T01:40:08.878Z,17.4
2018-04-22T01:40:58.345Z,17.4
2018-04-22T01:41:48.171Z,17.4
2018-04-22T01:42:37.353Z,17.4
2018-04-22T01:43:28.539Z,17.4
2018-04-22T01:44:18.593Z,17.4
2018-04-22T01:45:08.726Z,17.4
2018-04-22T01:45:58.703Z,17.4
2018-04-22T01:46:49.063Z,17.4
2018-04-22T01:47:39.418Z,17.4
2018-04-22T01:48:29.233Z,17.4
2018-04-22T01:49:19.538Z,17.4
2018-04-22T01:50:09.055Z,17.4
2018-04-22T01:50:59.416Z,17.4
2018-04-22T01:51:49.452Z,17.4
2018-04-22T01:52:38.700Z,17.4
2018-04-22T01:53:28.746Z,17.4
2018-04-22T01:54:19.403Z,17.4
2018-04-22T01:55:09.475Z,17.3
2018-04-22T01:55:59.576Z,17.4
2018-04-22T01:56:49.834Z,17.4
2018-04-22T01:57:39.968Z,17.3
2018-04-22T01:58:29.728Z,17.4
2018-04-22T01:59:19.479Z,17.4
2018-04-22T02:00:09.882Z,17.4
2018-04-22T02:00:59.367Z,17.4
2018-04-22T02:01:48.569Z,17.4
2018-04-22T02:02:40.042Z,17.3
2018-04-22T02:03:30.082Z,17.4
2018-04-22T02:04:19.343Z,17.3
2018-04-22T02:05:10.840Z,17.3
2018-04-22T02:05:59.759Z,17.3
2018-04-22T02:06:50.359Z,17.3
2018-04-22T02:07:40.424Z,17.3
2018-04-22T02:08:30.544Z,17.3
2018-04-22T02:09:19.698Z,17.3
2018-04-22T02:10:10.611Z,17.3
2018-04-22T02:11:00.099Z,17.3
2018-04-22T02:11:50.492Z,17.3
2018-04-22T02:12:40.019Z,17.3
2018-04-22T02:13:30.121Z,17.3
2018-04-22T02:14:20.132Z,17.3
2018-04-22T02:15:11.300Z,17.3
2018-04-22T02:16:01.105Z,17.3
2018-04-22T02:16:51.081Z,17.3
2018-04-22T02:17:41.169Z,17.3
2018-04-22T02:18:31.790Z,17.3
2018-04-22T02:19:21.822Z,17.3
2018-04-22T02:20:11.339Z,17.3
2018-04-22T02:21:01.660Z,17.3
2018-04-22T02:21:50.922Z,17.3
2018-04-22T02:22:41.839Z,17.3
2018-04-22T02:23:32.110Z,17.3
2018-04-22T02:24:21.397Z,17.3
2018-04-22T02:25:11.416Z,17.3
2018-04-22T02:26:02.096Z,17.3
2018-04-22T02:26:52.230Z,17.3
2018-04-22T02:27:42.210Z,17.3
2018-04-22T02:28:31.173Z,17.3
2018-04-22T02:29:21.747Z,17.3
2018-04-22T02:30:11.881Z,17.3
2018-04-22T02:31:02.200Z,17.3
2018-04-22T02:31:52.260Z,17.3
2018-04-22T02:32:42.644Z,17.3
2018-04-22T02:33:32.964Z,17.3
2018-04-22T02:34:22.211Z,17.3
2018-04-22T02:35:12.259Z,17.3
2018-04-22T02:36:02.573Z,17.3
2018-04-22T02:36:52.866Z,17.3
2018-04-22T02:37:42.443Z,17.3
2018-04-22T02:38:32.807Z,17.3
2018-04-22T02:39:23.115Z,17.3
2018-04-22T02:40:13.140Z,17.3
2018-04-22T02:41:03.077Z,17.3
2018-04-22T02:41:52.507Z,17.3
2018-04-22T02:42:43.098Z,17.3
2018-04-22T02:43:33.608Z,17.3
2018-04-22T02:44:22.642Z,17.3
2018-04-22T02:45:12.693Z,17.3
2018-04-22T02:46:03.352Z,17.2
2018-04-22T02:46:53.756Z,17.3
2018-04-22T02:47:43.177Z,17.3
2018-04-22T02:48:32.395Z,17.3
2018-04-22T02:49:23.843Z,17.3
2018-04-22T02:50:13.342Z,17.2
2018-04-22T02:51:03.769Z,17.2
2018-04-22T02:51:53.560Z,17.2
2018-04-22T02:52:43.835Z,17.2
2018-04-22T02:53:33.083Z,17.2
2018-04-22T02:54:24.003Z,17.2
2018-04-22T02:55:14.304Z,17.2
2018-04-22T02:56:03.526Z,17.2
2018-04-22T02:56:53.631Z,17.2
2018-04-22T02:57:44.227Z,17.2
2018-04-22T02:58:33.988Z,17.2
2018-04-22T02:59:24.858Z,17.2
2018-04-22T03:00:14.673Z,17.2
2018-04-22T03:01:04.161Z,17.2
2018-04-22T03:01:54.033Z,17.2
2018-04-22T03:02:43.469Z,17.2
2018-04-22T03:03:34.636Z,17.2
2018-04-22T03:04:25.019Z,17.2
2018-04-22T03:05:14.460Z,17.2
2018-04-22T03:06:04.597Z,17.2
2018-04-22T03:06:54.935Z,17.2
2018-04-22T03:07:44.167Z,17.2
2018-04-22T03:08:34.775Z,17.2
2018-04-22T03:09:24.868Z,17.2
2018-04-22T03:10:14.934Z,17.1
2018-04-22T03:11:04.630Z,17.2
2018-04-22T03:11:55.534Z,17.2
2018-04-22T03:12:45.636Z,17.2
2018-04-22T03:13:35.403Z,17.2
2018-04-22T03:14:25.760Z,17.2
2018-04-22T03:15:16.070Z,17.2
2018-04-22T03:16:05.602Z,17.1
2018-04-22T03:16:55.398Z,17.1
2018-04-22T03:17:45.445Z,17.1
2018-04-22T03:18:36.360Z,17.1
2018-04-22T03:19:26.083Z,17.1
2018-04-22T03:20:15.882Z,17.1
2018-04-22T03:21:05.414Z,17.1
2018-04-22T03:21:54.927Z,17.1
2018-04-22T03:22:45.286Z,17.1
2018-04-22T03:23:35.012Z,17.1
2018-04-22T03:24:26.799Z,17.1
2018-04-22T03:25:31.526Z,17.1
2018-04-22T03:26:05.784Z,17.1
2018-04-22T03:26:56.776Z,17.1
2018-04-22T03:27:45.657Z,17.1
2018-04-22T03:28:36.797Z,17.1
2018-04-22T03:29:26.087Z,17.1
2018-04-22T03:30:16.960Z,17.1
2018-04-22T03:31:07.312Z,17.1
2018-04-22T03:31:56.554Z,17.1
2018-04-22T03:32:47.148Z,17.1
2018-04-22T03:33:37.191Z,17.1
2018-04-22T03:34:26.662Z,17.1
2018-04-22T03:35:17.077Z,17.1
2018-04-22T03:36:07.665Z,17.1
2018-04-22T03:36:57.725Z,17.1
2018-04-22T03:37:46.917Z,17.1
2018-04-22T03:38:37.265Z,17.1
2018-04-22T03:39:27.360Z,17.1
2018-04-22T03:40:17.648Z,17.1
2018-04-22T03:41:07.755Z,17.1
2018-04-22T03:41:57.815Z,17.1
2018-04-22T03:42:47.607Z,17.1
2018-04-22T03:43:38.290Z,17.1
2018-04-22T03:44:27.709Z,17.1
2018-04-22T03:45:18.034Z,17.1
2018-04-22T03:46:07.876Z,17.1
2018-04-22T03:46:57.911Z,17.1
2018-04-22T03:47:47.110Z,17.1
2018-04-22T03:48:38.015Z,17.1
2018-04-22T03:49:28.664Z,17.1
2018-04-22T03:50:18.148Z,17.1
2018-04-22T03:51:08.216Z,17.1
2018-04-22T03:51:58.875Z,17.1
2018-04-22T03:52:47.829Z,17.1
2018-04-22T03:53:38.223Z,17.1
2018-04-22T03:54:28.853Z,17.1
2018-04-22T03:55:18.565Z,17.1
2018-04-22T03:56:09.209Z,17.1
2018-04-22T03:56:58.663Z,17.1
2018-04-22T03:57:48.991Z,17.1
2018-04-22T03:58:38.797Z,17.1
2018-04-22T03:59:28.568Z,17.1
2018-04-22T04:00:19.188Z,17.1
2018-04-22T04:01:08.982Z,17.1
2018-04-22T04:01:58.577Z,17.1
2018-04-22T04:02:48.817Z,17.1
2018-04-22T04:03:39.151Z,17.1
2018-04-22T04:04:29.583Z,17.1
2018-04-22T04:06:09.647Z,17.1
2018-04-22T04:07:49.763Z,17.1
2018-04-22T04:09:29.055Z,17.1
2018-04-22T04:35:21.620Z,16.9
2018-04-22T04:36:11.801Z,16.9
2018-04-22T04:39:31.896Z,16.9
2018-04-22T04:41:11.779Z,16.9
2018-04-22T04:42:01.811Z,16.9
2018-04-22T04:44:32.326Z,16.9
2018-04-22T04:45:22.055Z,16.9
2018-04-22T04:46:12.083Z,16.9
2018-04-22T04:55:23.723Z,16.9
2018-04-22T04:57:03.282Z,16.9
2018-04-22T04:57:53.281Z,16.9
2018-04-22T04:58:43.347Z,16.9
2018-04-22T04:59:33.977Z,16.9
2018-04-22T05:00:22.890Z,16.9
2018-04-22T05:01:13.847Z,16.9
2018-04-22T05:02:03.396Z,16.9
2018-04-22T05:02:53.985Z,16.9
2018-04-22T05:03:43.735Z,16.9
2018-04-22T05:04:33.270Z,16.9
2018-04-22T05:05:24.166Z,16.9
2018-04-22T05:06:13.992Z,16.9
2018-04-22T05:07:04.592Z,16.9
2018-04-22T05:07:54.051Z,16.9
2018-04-22T05:08:43.841Z,16.9
2018-04-22T05:09:34.713Z,16.9
2018-04-22T05:10:23.747Z,16.9
2018-04-22T05:11:14.927Z,16.9
2018-04-22T05:12:04.415Z,16.9
2018-04-22T05:12:54.454Z,16.9
2018-04-22T05:13:44.191Z,16.9
2018-04-22T05:14:34.897Z,16.9
2018-04-22T05:15:24.586Z,16.9
2018-04-22T05:16:14.643Z,16.9
2018-04-22T05:17:04.504Z,16.9
2018-04-22T05:17:55.104Z,16.9
2018-04-22T05:18:45.617Z,16.9
2018-04-22T05:19:35.536Z,16.9
2018-04-22T05:20:24.420Z,16.9
2018-04-22T05:21:14.534Z,16.9
2018-04-22T05:22:05.427Z,16.9
2018-04-22T05:22:54.909Z,16.9
2018-04-22T05:23:45.521Z,16.9
2018-04-22T05:24:35.049Z,16.9
2018-04-22T05:25:25.667Z,16.9
2018-04-22T05:26:15.472Z,16.9
2018-04-22T05:27:05.879Z,16.9
2018-04-22T05:27:55.836Z,16.9
2018-04-22T05:28:46.203Z,16.9
2018-04-22T05:29:36.236Z,16.9
2018-04-22T05:30:25.749Z,16.9
2018-04-22T05:31:16.871Z,16.9
2018-04-22T05:32:55.684Z,16.9
2018-04-22T05:33:46.300Z,16.9
2018-04-22T05:34:36.337Z,16.8
2018-04-22T05:35:26.176Z,16.8
2018-04-22T05:36:16.177Z,16.7
2018-04-22T05:37:06.823Z,16.7
2018-04-22T05:37:56.358Z,16.7
2018-04-22T05:38:46.906Z,16.7
2018-04-22T05:39:36.734Z,16.7
2018-04-22T05:40:27.024Z,16.8
2018-04-22T05:41:16.051Z,16.8
2018-04-22T05:42:07.190Z,16.8
2018-04-22T05:42:57.226Z,16.8
2018-04-22T05:43:46.542Z,16.8
2018-04-22T05:44:36.810Z,16.9
2018-04-22T05:45:27.146Z,16.8
2018-04-22T05:46:16.695Z,16.8
2018-04-22T05:47:07.581Z,16.9
2018-04-22T05:47:57.651Z,16.9
2018-04-22T05:48:47.516Z,16.9
2018-04-22T05:49:37.809Z,16.9
2018-04-22T05:50:27.585Z,16.9
2018-04-22T05:51:17.062Z,16.9
2018-04-22T05:52:07.702Z,16.9
2018-04-22T05:52:57.741Z,16.9
2018-04-22T05:53:47.804Z,16.9
2018-04-22T05:54:37.890Z,16.9
2018-04-22T05:55:27.620Z,16.9
2018-04-22T05:56:18.063Z,16.9
2018-04-22T05:57:07.504Z,16.9
2018-04-22T05:57:57.596Z,16.9
2018-04-22T05:58:47.904Z,16.9
2018-04-22T05:59:37.751Z,16.9
2018-04-22T06:00:27.489Z,16.9
2018-04-22T06:01:17.829Z,16.8
2018-04-22T06:02:07.661Z,16.8
2018-04-22T06:02:59.076Z,16.7
2018-04-22T06:03:48.006Z,16.7
2018-04-22T06:04:37.846Z,16.8
2018-04-22T06:05:28.706Z,16.7
2018-04-22T06:06:18.786Z,16.8
2018-04-22T06:07:08.009Z,16.8
2018-04-22T06:07:58.360Z,16.8
2018-04-22T06:08:48.860Z,16.8
2018-04-22T06:09:38.501Z,16.8
2018-04-22T06:10:28.227Z,16.8
2018-04-22T06:11:18.684Z,16.8
2018-04-22T06:12:08.991Z,16.8
2018-04-22T06:12:59.516Z,16.8
2018-04-22T06:13:49.036Z,16.8
2018-04-22T06:14:39.473Z,16.8
2018-04-22T06:15:29.511Z,16.8
2018-04-22T06:16:19.792Z,16.8
2018-04-22T06:17:08.781Z,16.8
2018-04-22T06:17:58.829Z,16.8
2018-04-22T06:18:49.161Z,16.8
2018-04-22T06:19:39.227Z,16.8
2018-04-22T06:20:29.570Z,16.8
2018-04-22T06:21:19.343Z,16.8
2018-04-22T06:22:08.991Z,16.8
2018-04-22T06:22:59.929Z,16.8
2018-04-22T06:23:49.787Z,16.8
2018-04-22T06:24:39.326Z,16.8
2018-04-22T06:25:29.662Z,16.8
2018-04-22T06:26:18.868Z,16.8
2018-04-22T06:27:09.786Z,16.8
2018-04-22T06:28:00.132Z,16.8
2018-04-22T06:28:49.893Z,16.8
2018-04-22T06:29:40.552Z,16.8
2018-04-22T06:30:30.876Z,16.8
2018-04-22T06:31:20.657Z,16.8
2018-04-22T06:32:10.756Z,16.8
2018-04-22T06:32:58.360Z,16.8
2018-04-22T06:33:50.283Z,16.8
2018-04-22T06:34:39.518Z,16.8
2018-04-22T06:35:29.916Z,16.8
2018-04-22T06:36:20.336Z,16.8
2018-04-22T06:37:10.374Z,16.8
2018-04-22T06:38:01.184Z,16.8
2018-04-22T06:38:51.528Z,16.8
2018-04-22T06:39:40.156Z,16.8
2018-04-22T06:40:30.786Z,16.8
2018-04-22T06:41:20.350Z,16.8
2018-04-22T06:42:10.101Z,16.8
2018-04-22T06:43:00.723Z,16.8
2018-04-22T06:43:50.570Z,16.8
2018-04-22T06:44:41.431Z,16.8
2018-04-22T06:45:31.758Z,16.8
2018-04-22T06:46:21.277Z,16.8
2018-04-22T06:47:11.870Z,16.8
2018-04-22T06:48:01.118Z,16.8
2018-04-22T06:48:51.455Z,16.8
2018-04-22T06:49:41.519Z,16.8
2018-04-22T06:50:31.844Z,16.8
2018-04-22T06:51:21.359Z,16.8
2018-04-22T06:52:11.688Z,16.8
2018-04-22T06:53:02.325Z,16.8
2018-04-22T06:53:52.075Z,16.8
2018-04-22T06:54:42.122Z,16.8
2018-04-22T06:55:32.524Z,16.8
2018-04-22T06:56:22.115Z,16.8
2018-04-22T06:57:12.908Z,16.8
2018-04-22T06:58:02.469Z,16.8
2018-04-22T06:58:52.359Z,16.8
2018-04-22T06:59:42.827Z,16.8
2018-04-22T07:00:32.602Z,16.8
2018-04-22T07:01:22.406Z,16.8
2018-04-22T07:02:11.591Z,16.8
2018-04-22T07:03:01.676Z,16.8
2018-04-22T07:03:52.289Z,16.8
2018-04-22T07:04:43.515Z,16.8
2018-04-22T07:05:32.709Z,16.8
2018-04-22T07:06:23.081Z,16.8
2018-04-22T07:07:12.852Z,16.8
2018-04-22T07:08:02.681Z,16.8
2018-04-22T07:08:53.529Z,16.8
2018-04-22T07:09:43.319Z,16.8
2018-04-22T07:10:33.121Z,16.8
2018-04-22T07:11:23.136Z,16.8
2018-04-22T07:12:13.537Z,16.8
2018-04-22T07:13:03.170Z,16.8
2018-04-22T07:13:52.561Z,16.8
2018-04-22T07:14:43.785Z,16.8
2018-04-22T07:15:34.371Z,16.8
2018-04-22T07:16:24.431Z,16.8
2018-04-22T07:17:13.980Z,16.8
2018-04-22T07:18:04.228Z,16.8
2018-04-22T07:18:53.488Z,16.8
2018-04-22T07:19:44.756Z,16.8
2018-04-22T07:20:34.805Z,16.8
2018-04-22T07:21:24.322Z,16.8
2018-04-22T07:22:14.597Z,16.8
2018-04-22T07:23:04.888Z,16.8
2018-04-22T07:23:54.482Z,16.8
2018-04-22T07:24:43.881Z,16.8
2018-04-22T07:25:34.788Z,16.8
2018-04-22T07:26:24.594Z,16.8
2018-04-22T07:27:14.438Z,16.8
2018-04-22T07:28:05.332Z,16.8
2018-04-22T07:28:54.769Z,16.8
2018-04-22T07:29:44.575Z,16.8
2018-04-22T07:30:34.196Z,16.8
2018-04-22T07:31:23.296Z,16.8
2018-04-22T07:32:13.589Z,16.8
2018-04-22T07:33:04.814Z,16.8
2018-04-22T07:33:53.780Z,16.8
2018-04-22T07:34:44.805Z,16.8
2018-04-22T07:35:33.580Z,16.8
2018-04-22T07:36:23.740Z,16.8
2018-04-22T07:37:14.317Z,16.8
2018-04-22T07:38:04.495Z,16.8
2018-04-22T07:38:54.759Z,16.8
2018-04-22T07:39:43.907Z,16.8
2018-04-22T07:40:35.185Z,16.8
2018-04-22T07:41:25.253Z,16.8
2018-04-22T07:42:15.289Z,16.8
2018-04-22T07:43:05.364Z,16.8
2018-04-22T07:43:54.675Z,16.8
2018-04-22T07:44:45.191Z,16.8
2018-04-22T07:45:35.823Z,16.8
2018-04-22T07:46:25.231Z,16.8
2018-04-22T07:47:15.167Z,16.8
2018-04-22T07:48:04.876Z,16.8
2018-04-22T07:48:55.190Z,16.8
2018-04-22T07:49:45.893Z,16.8
2018-04-22T07:50:35.721Z,16.8
2018-04-22T07:51:25.741Z,16.8
2018-04-22T07:52:16.629Z,16.8
2018-04-22T07:53:06.106Z,16.8
2018-04-22T07:53:55.296Z,16.8
2018-04-22T07:54:46.611Z,16.8
2018-04-22T07:55:36.605Z,16.8
2018-04-22T07:56:26.072Z,16.8
2018-04-22T07:57:16.668Z,16.8
2018-04-22T07:58:06.779Z,16.8
2018-04-22T07:58:55.560Z,16.8
2018-04-22T07:59:46.914Z,16.8
2018-04-22T08:00:35.879Z,16.8
2018-04-22T08:01:27.032Z,16.8
2018-04-22T08:02:16.317Z,16.8
2018-04-22T08:03:07.681Z,16.8
2018-04-22T08:03:57.250Z,16.9
2018-04-22T08:04:47.791Z,16.8
2018-04-22T08:05:37.331Z,16.8
2018-04-22T08:06:27.665Z,16.9
2018-04-22T08:07:18.309Z,16.8
2018-04-22T08:08:08.141Z,16.8
2018-04-22T08:08:57.870Z,16.8
2018-04-22T08:09:48.194Z,16.8
2018-04-22T08:10:38.275Z,16.8
2018-04-22T08:11:28.384Z,16.8
2018-04-22T08:12:18.375Z,16.8
2018-04-22T08:13:08.733Z,16.9
2018-04-22T08:13:57.773Z,16.9
2018-04-22T08:14:48.593Z,16.9
2018-04-22T08:15:38.424Z,16.9
2018-04-22T08:16:28.507Z,16.9
2018-04-22T08:17:19.084Z,16.8
2018-04-22T08:18:08.012Z,16.8
2018-04-22T08:18:58.614Z,16.8
2018-04-22T08:19:47.986Z,16.9
2018-04-22T08:20:38.224Z,16.8
2018-04-22T08:21:28.830Z,16.9
2018-04-22T08:22:19.228Z,16.9
2018-04-22T08:23:08.385Z,16.9
2018-04-22T08:23:59.030Z,16.9
2018-04-22T08:24:49.338Z,16.9
2018-04-22T08:25:39.441Z,16.9
2018-04-22T08:26:28.963Z,16.9
2018-04-22T08:27:19.864Z,16.9
2018-04-22T08:28:08.867Z,16.9
2018-04-22T08:28:59.001Z,16.9
2018-04-22T08:29:49.538Z,16.9
2018-04-22T08:30:39.332Z,16.9
2018-04-22T08:31:29.216Z,16.9
2018-04-22T08:32:19.469Z,16.9
2018-04-22T08:33:08.214Z,16.9
2018-04-22T08:34:00.339Z,16.9
2018-04-22T08:34:49.074Z,16.9
2018-04-22T08:35:39.184Z,16.9
2018-04-22T08:36:29.571Z,16.8
2018-04-22T08:37:19.863Z,16.9
2018-04-22T08:38:10.143Z,16.9
2018-04-22T08:39:00.456Z,16.9
2018-04-22T08:39:50.024Z,16.9
2018-04-22T08:40:39.748Z,16.9
2018-04-22T08:41:29.646Z,16.9
2018-04-22T08:42:19.428Z,16.9
2018-04-22T08:43:10.693Z,16.9
2018-04-22T08:44:01.252Z,16.9
2018-04-22T08:44:51.209Z,16.9
2018-04-22T08:45:40.722Z,16.9
2018-04-22T08:46:31.150Z,16.9
2018-04-22T08:47:21.367Z,16.9
2018-04-22T08:48:11.530Z,16.9
2018-04-22T08:49:00.966Z,16.9
2018-04-22T08:49:51.294Z,16.9
2018-04-22T08:50:42.238Z,16.9
2018-04-22T08:51:31.174Z,16.9
2018-04-22T08:52:20.169Z,16.9
2018-04-22T08:53:11.289Z,16.9
2018-04-22T08:54:01.364Z,16.9
2018-04-22T08:54:51.161Z,16.9
2018-04-22T08:55:41.736Z,16.9
2018-04-22T08:56:31.563Z,16.9
2018-04-22T08:57:21.323Z,16.9
2018-04-22T08:58:12.301Z,16.9
2018-04-22T08:59:02.067Z,16.9
2018-04-22T08:59:51.503Z,16.9
2018-04-22T09:00:41.322Z,16.9
2018-04-22T09:01:32.204Z,16.9
2018-04-22T09:02:21.976Z,16.9
2018-04-22T09:03:12.617Z,16.9
2018-04-22T09:04:02.410Z,16.9
2018-04-22T09:04:51.916Z,16.9
2018-04-22T09:05:42.862Z,16.9
2018-04-22T09:06:32.604Z,16.9
2018-04-22T09:07:22.648Z,16.9
2018-04-22T09:08:12.732Z,16.9
2018-04-22T09:09:03.052Z,16.9
2018-04-22T09:09:53.173Z,16.9
2018-04-22T09:10:42.644Z,16.9
2018-04-22T09:11:32.977Z,16.9
2018-04-22T09:12:22.201Z,16.9
2018-04-22T09:13:12.586Z,16.9
2018-04-22T09:14:03.480Z,16.9
2018-04-22T09:14:52.700Z,16.9
2018-04-22T09:15:43.599Z,16.9
2018-04-22T09:16:32.943Z,16.9
2018-04-22T09:17:22.321Z,16.9
2018-04-22T09:18:13.823Z,16.9
2018-04-22T09:19:03.022Z,16.9
2018-04-22T09:19:53.070Z,16.9
2018-04-22T09:20:43.734Z,16.9
2018-04-22T09:21:32.984Z,16.9
2018-04-22T09:22:23.386Z,16.9
2018-04-22T09:23:13.083Z,16.9
2018-04-22T09:24:04.246Z,16.9
2018-04-22T09:24:53.750Z,16.9
2018-04-22T09:25:43.580Z,16.9
2018-04-22T09:26:34.225Z,16.9
2018-04-22T09:27:24.002Z,16.9
2018-04-22T09:28:14.016Z,16.9
2018-04-22T09:29:04.635Z,16.9
2018-04-22T09:29:54.103Z,16.9
2018-04-22T09:30:43.724Z,16.9
2018-04-22T09:31:33.992Z,16.9
2018-04-22T09:32:24.623Z,16.9
2018-04-22T09:33:15.690Z,16.9
2018-04-22T09:34:04.764Z,16.9
2018-04-22T09:34:55.099Z,16.9
2018-04-22T09:35:44.671Z,16.9
2018-04-22T09:36:34.957Z,16.9
2018-04-22T09:37:24.676Z,16.9
2018-04-22T09:38:15.067Z,16.9
2018-04-22T09:39:04.839Z,16.9
2018-04-22T09:39:54.676Z,16.9
2018-04-22T09:40:45.507Z,16.9
2018-04-22T09:41:35.627Z,16.9
2018-04-22T09:43:15.772Z,16.9
2018-04-22T09:44:05.830Z,16.9
2018-04-22T09:44:55.815Z,16.9
2018-04-22T09:45:45.608Z,16.9
2018-04-22T09:46:35.672Z,16.9
2018-04-22T09:47:25.847Z,16.9
2018-04-22T09:48:16.159Z,16.9
2018-04-22T09:49:56.523Z,16.9
2018-04-22T09:50:45.455Z,16.9
2018-04-22T09:51:36.413Z,16.9
2018-04-22T09:52:26.443Z,16.9
2018-04-22T09:53:15.981Z,16.9
2018-04-22T09:54:05.746Z,16.9
2018-04-22T09:54:56.126Z,16.9
2018-04-22T09:55:46.269Z,16.9
2018-04-22T09:57:26.575Z,16.9
2018-04-22T09:58:16.632Z,16.9
2018-04-22T10:32:29.308Z,17.1
2018-04-22T10:50:51.012Z,17.1
2018-04-22T10:51:40.781Z,17.1
2018-04-22T10:52:30.847Z,17.1
2018-04-22T10:53:20.889Z,17.1
2018-04-22T10:54:10.761Z,17.1
2018-04-22T10:55:00.806Z,17.1
2018-04-22T10:55:51.096Z,17.1
2018-04-22T10:56:40.924Z,17.1
2018-04-22T10:57:30.492Z,17.1
2018-04-22T10:58:20.784Z,17.1
2018-04-22T10:59:10.812Z,17.1
2018-04-22T11:00:01.855Z,17.1
2018-04-22T11:00:51.285Z,17.1
2018-04-22T11:01:41.002Z,17.1
2018-04-22T11:02:31.364Z,17.1
2018-04-22T11:03:21.154Z,17.1
2018-04-22T11:04:11.487Z,17.1
2018-04-22T11:05:01.212Z,17.1
2018-04-22T11:05:51.359Z,17.1
2018-04-22T11:06:42.275Z,17.1
2018-04-22T11:07:31.744Z,17.1
2018-04-22T11:08:21.526Z,17.1
2018-04-22T11:09:12.174Z,17.1
2018-04-22T11:10:01.107Z,17.1
2018-04-22T11:10:51.752Z,17.1
2018-04-22T11:11:41.928Z,17.1
2018-04-22T11:12:32.127Z,17.1
2018-04-22T11:13:22.521Z,17.1
2018-04-22T11:14:12.306Z,17.1
2018-04-22T11:15:02.047Z,17.1
2018-04-22T11:15:51.870Z,17.1
2018-04-22T11:16:41.736Z,17.1
2018-04-22T11:17:32.261Z,17.1
2018-04-22T11:18:23.212Z,17.1
2018-04-22T11:19:13.069Z,17.1
2018-04-22T11:20:03.330Z,17.1
2018-04-22T11:20:52.488Z,17.1
2018-04-22T11:21:43.121Z,17.1
2018-04-22T11:22:33.455Z,17.1
2018-04-22T11:23:23.063Z,17.1
2018-04-22T11:24:12.760Z,17.1
2018-04-22T11:25:02.895Z,17.1
2018-04-22T11:25:53.181Z,17.1
2018-04-22T11:26:43.226Z,17.1
2018-04-22T11:27:34.212Z,17.1
2018-04-22T11:28:23.935Z,17.1
2018-04-22T11:29:12.951Z,17.1
2018-04-22T11:30:03.803Z,17.1
2018-04-22T11:30:53.289Z,17.1
2018-04-22T11:31:44.172Z,17.1
2018-04-22T11:32:34.238Z,17.1
2018-04-22T11:33:24.321Z,17.1
2018-04-22T11:34:14.157Z,17.1
2018-04-22T11:35:03.895Z,17.1
2018-04-22T11:35:53.176Z,17.1
2018-04-22T11:36:43.728Z,17.1
2018-04-22T11:37:34.078Z,17.1
2018-04-22T11:38:23.876Z,17.1
2018-04-22T11:39:13.943Z,17.1
2018-04-22T11:40:04.285Z,17.1
2018-04-22T11:40:54.911Z,17.1
2018-04-22T11:41:44.141Z,17.1
2018-04-22T11:42:34.769Z,17.1
2018-04-22T11:43:25.089Z,17.1
2018-04-22T11:44:14.566Z,17.1
2018-04-22T11:45:04.694Z,17.1
2018-04-22T11:45:54.811Z,17.1
2018-04-22T11:46:44.504Z,17.1
2018-04-22T11:47:35.138Z,17.1
2018-04-22T11:48:24.631Z,17.1
2018-04-22T11:49:15.247Z,17.1
2018-04-22T11:50:05.596Z,17.1
2018-04-22T11:50:55.407Z,17.1
2018-04-22T11:51:44.932Z,17.1
2018-04-22T11:52:35.895Z,17.1
2018-04-22T11:53:25.348Z,17.1
2018-04-22T11:54:15.098Z,17.1
2018-04-22T11:55:05.485Z,17.1
2018-04-22T11:55:55.051Z,17.1
2018-04-22T11:56:45.916Z,17.1
2018-04-22T11:57:35.361Z,17.1
2018-04-22T11:58:25.149Z,17.1
2018-04-22T11:59:15.789Z,17.1
2018-04-22T12:00:06.214Z,17.1
2018-04-22T12:00:56.474Z,17.1
2018-04-22T12:01:45.698Z,17.1
2018-04-22T12:02:36.660Z,17.1
2018-04-22T12:03:26.402Z,17.2
2018-04-22T12:04:16.715Z,17.2
2018-04-22T12:05:06.533Z,17.2
2018-04-22T12:05:56.688Z,17.2
2018-04-22T12:06:45.875Z,17.2
2018-04-22T12:07:36.270Z,17.2
2018-04-22T12:08:26.747Z,17.1
2018-04-22T12:09:16.815Z,17.1
2018-04-22T12:10:06.931Z,17.2
2018-04-22T12:10:56.960Z,17.2
2018-04-22T12:11:47.262Z,17.2
2018-04-22T12:12:37.037Z,17.2
2018-04-22T12:13:26.880Z,17.2
2018-04-22T12:14:16.404Z,17.2
2018-04-22T12:15:07.359Z,17.2
2018-04-22T12:15:57.307Z,17.2
2018-04-22T12:16:47.442Z,17.2
2018-04-22T12:17:37.804Z,17.2
2018-04-22T12:18:27.257Z,17.2
2018-04-22T12:19:17.119Z,17.2
2018-04-22T12:20:07.385Z,17.2
2018-04-22T12:20:57.761Z,17.2
2018-04-22T12:21:47.572Z,17.2
2018-04-22T12:22:37.345Z,17.2
2018-04-22T12:23:28.250Z,17.2
2018-04-22T12:24:18.322Z,17.2
2018-04-22T12:25:08.129Z,17.2
2018-04-22T12:25:57.333Z,17.2
2018-04-22T12:26:47.912Z,17.2
2018-04-22T12:27:38.602Z,17.2
2018-04-22T12:28:28.132Z,17.2
2018-04-22T12:29:17.563Z,17.2
2018-04-22T12:30:07.944Z,17.2
2018-04-22T12:30:58.836Z,17.2
2018-04-22T12:31:48.730Z,17.2
2018-04-22T12:32:38.948Z,17.2
2018-04-22T12:33:29.057Z,17.2
2018-04-22T12:34:18.238Z,17.3
2018-04-22T12:35:08.038Z,17.2
2018-04-22T12:35:58.103Z,17.3
2018-04-22T12:36:49.006Z,17.3
2018-04-22T12:37:39.373Z,17.3
2018-04-22T12:38:28.865Z,17.3
2018-04-22T12:39:19.482Z,17.3
2018-04-22T12:40:08.153Z,17.3
2018-04-22T12:40:59.372Z,17.3
2018-04-22T12:41:49.423Z,17.3